Terminal Aerodrome Forecast
Issued by NWS Mobile, AL

Home | Current Version | Previous Version | Text Only | Print | Product List | Glossary On
Versions: 1 2 3 4 5 6 7 8 9 10 11 12 13 14 15
000
FTUS44 KMOB 232357
TAFMOB
TAF
KMOB 232357Z 2400/2424 22012G18KT P6SM VCTS FEW030CB SCT060
     FM240400 30004KT P6SM VCTS BKN015CB OVC050
     FM241200 28006KT 4SM BR VCTS SCT030CB SCT250
      TEMPO 2412/2415 2SM -TSRA BR OVC015CB
     FM241500 29008KT P6SM OVC025=

USA.gov is the U.S. government's official web portal to all federal, state and local government web resources and services.